createdAt,value
2017-08-28T00:00:01.533Z,18.40
2017-08-28T00:02:28.986Z,18.40
2017-08-28T00:04:56.433Z,18.50
2017-08-28T00:07:23.885Z,18.40
2017-08-28T00:09:51.334Z,18.40
2017-08-28T00:12:18.801Z,18.40
2017-08-28T00:14:46.249Z,18.30
2017-08-28T00:17:13.694Z,18.30
2017-08-28T00:19:41.153Z,18.20
2017-08-28T00:22:08.604Z,18.30
2017-08-28T00:24:36.053Z,18.20
2017-08-28T00:27:03.498Z,18.20
2017-08-28T00:29:30.950Z,18.20
2017-08-28T00:31:58.398Z,18.10
2017-08-28T00:34:25.845Z,18.00
2017-08-28T00:36:53.301Z,17.90
2017-08-28T00:39:20.759Z,17.80
2017-08-28T00:41:48.202Z,17.80
2017-08-28T00:44:15.659Z,17.70
2017-08-28T00:46:43.107Z,17.60
2017-08-28T00:49:10.570Z,17.50
2017-08-28T00:51:38.031Z,17.50
2017-08-28T00:54:05.473Z,17.50
2017-08-28T00:56:32.933Z,17.50
2017-08-28T00:59:00.387Z,17.50
2017-08-28T01:01:27.847Z,17.40
2017-08-28T01:03:55.282Z,17.40
2017-08-28T01:06:22.733Z,17.50
2017-08-28T01:08:50.185Z,17.40
2017-08-28T01:11:17.658Z,17.50
2017-08-28T01:13:45.106Z,17.40
2017-08-28T01:16:12.561Z,17.40
2017-08-28T01:18:40.013Z,17.40
2017-08-28T01:21:07.466Z,17.50
2017-08-28T01:23:34.927Z,17.70
2017-08-28T01:26:02.366Z,17.50
2017-08-28T01:28:29.827Z,17.40
2017-08-28T01:30:57.277Z,17.40
2017-08-28T01:33:24.734Z,17.30
2017-08-28T01:35:52.177Z,17.30
2017-08-28T01:38:19.630Z,17.20
2017-08-28T01:40:47.081Z,17.20
2017-08-28T01:43:14.538Z,17.10
2017-08-28T01:45:41.982Z,17.10
2017-08-28T01:48:09.441Z,17.20
2017-08-28T01:50:36.886Z,17.20
2017-08-28T01:53:04.338Z,17.20
2017-08-28T01:55:31.795Z,17.10
2017-08-28T01:57:59.244Z,17.00
2017-08-28T02:00:26.695Z,17.00
2017-08-28T02:02:54.141Z,17.00
2017-08-28T02:05:21.599Z,16.90
2017-08-28T02:07:49.047Z,17.00
2017-08-28T02:10:16.501Z,17.10
2017-08-28T02:12:43.944Z,17.10
2017-08-28T02:15:11.397Z,17.10
2017-08-28T02:17:38.842Z,17.10
2017-08-28T02:20:06.298Z,17.10
2017-08-28T02:22:33.750Z,17.20
2017-08-28T02:25:01.222Z,17.00
2017-08-28T02:27:28.669Z,16.90
2017-08-28T02:29:56.123Z,16.70
2017-08-28T02:32:23.574Z,16.70
2017-08-28T02:34:51.027Z,16.70
2017-08-28T02:37:18.482Z,16.70
2017-08-28T02:39:45.933Z,16.60
2017-08-28T02:42:13.390Z,16.50
2017-08-28T02:44:40.845Z,16.50
2017-08-28T02:47:08.299Z,16.50
2017-08-28T02:49:35.740Z,16.50
2017-08-28T02:52:03.193Z,16.40
2017-08-28T02:54:30.641Z,16.40
2017-08-28T02:56:58.102Z,16.30
2017-08-28T02:59:25.546Z,16.40
2017-08-28T03:01:53.005Z,16.30
2017-08-28T03:04:20.455Z,16.30
2017-08-28T03:06:47.915Z,16.30
2017-08-28T03:09:15.353Z,16.30
2017-08-28T03:11:42.809Z,16.30
2017-08-28T03:14:10.267Z,16.20
2017-08-28T03:16:37.735Z,16.10
2017-08-28T03:19:05.182Z,16.10
2017-08-28T03:21:32.630Z,16.00
2017-08-28T03:24:00.081Z,16.00
2017-08-28T03:26:27.520Z,16.10
2017-08-28T03:28:54.979Z,16.00
2017-08-28T03:31:22.431Z,16.00
2017-08-28T03:33:49.885Z,16.00
2017-08-28T03:36:17.338Z,15.90
2017-08-28T03:38:44.803Z,16.00
2017-08-28T03:41:12.263Z,16.00
2017-08-28T03:43:39.724Z,15.90
2017-08-28T03:46:07.185Z,15.90
2017-08-28T03:48:34.635Z,15.90
2017-08-28T03:51:02.094Z,15.80
2017-08-28T03:53:29.541Z,15.80
2017-08-28T03:55:57.006Z,15.80
2017-08-28T03:58:24.460Z,15.80
2017-08-28T04:00:51.924Z,15.80
2017-08-28T04:03:19.364Z,15.90
2017-08-28T04:05:46.835Z,15.80
2017-08-28T04:08:14.291Z,15.80
2017-08-28T04:10:41.754Z,15.70
2017-08-28T04:13:09.210Z,15.70
2017-08-28T04:15:36.657Z,15.60
2017-08-28T04:18:04.109Z,15.50
2017-08-28T04:20:31.570Z,15.50
2017-08-28T04:22:59.022Z,15.50
2017-08-28T04:25:26.466Z,15.60
2017-08-28T04:27:53.924Z,15.60
2017-08-28T04:30:21.370Z,15.70
2017-08-28T04:32:48.820Z,15.70
2017-08-28T04:35:16.270Z,15.70
2017-08-28T04:37:43.742Z,15.80
2017-08-28T04:40:11.182Z,15.70
2017-08-28T04:42:38.641Z,15.70
2017-08-28T04:45:06.096Z,15.70
2017-08-28T04:47:33.554Z,15.60
2017-08-28T04:50:01.013Z,15.60
2017-08-28T04:52:28.462Z,15.50
2017-08-28T04:54:55.908Z,15.40
2017-08-28T04:57:23.356Z,15.50
2017-08-28T04:59:50.823Z,15.60
2017-08-28T05:02:18.276Z,15.70
2017-08-28T05:04:45.731Z,15.80
2017-08-28T05:07:13.193Z,16.00
2017-08-28T05:09:40.654Z,15.80
2017-08-28T05:12:08.107Z,15.70
2017-08-28T05:14:35.571Z,15.60
2017-08-28T05:17:03.022Z,15.60
2017-08-28T05:19:30.490Z,15.60
2017-08-28T05:21:57.943Z,15.40
2017-08-28T05:24:25.414Z,15.40
2017-08-28T05:26:52.866Z,15.40
2017-08-28T05:29:20.315Z,15.50
2017-08-28T05:31:47.770Z,15.50
2017-08-28T05:34:15.217Z,15.50
2017-08-28T05:36:42.678Z,15.50
2017-08-28T05:39:10.126Z,15.50
2017-08-28T05:41:37.581Z,15.50
2017-08-28T05:44:05.033Z,15.50
2017-08-28T05:46:32.493Z,15.60
2017-08-28T05:48:59.955Z,15.70
2017-08-28T05:51:27.413Z,15.90
2017-08-28T05:53:54.852Z,16.10
2017-08-28T05:56:22.300Z,16.10
2017-08-28T05:58:49.758Z,16.20
2017-08-28T06:01:17.205Z,16.20
2017-08-28T06:03:44.658Z,16.30
2017-08-28T06:06:12.114Z,16.30
2017-08-28T06:08:39.548Z,16.50
2017-08-28T06:11:06.994Z,16.40
2017-08-28T06:13:34.443Z,16.50
2017-08-28T06:16:01.890Z,16.70
2017-08-28T06:18:29.337Z,16.60
2017-08-28T06:20:56.780Z,16.70
2017-08-28T06:23:24.227Z,16.80
2017-08-28T06:25:51.838Z,16.80
2017-08-28T06:28:19.316Z,16.70
2017-08-28T06:30:46.762Z,16.90
2017-08-28T06:33:14.220Z,17.00
2017-08-28T06:35:41.660Z,17.00
2017-08-28T06:38:09.122Z,16.90
2017-08-28T06:40:36.565Z,16.70
2017-08-28T06:43:04.019Z,16.80
2017-08-28T06:45:31.461Z,16.70
2017-08-28T06:47:58.897Z,16.80
2017-08-28T06:50:26.354Z,16.90
2017-08-28T06:52:53.792Z,16.90
2017-08-28T06:55:21.243Z,16.90
2017-08-28T06:57:48.695Z,17.10
2017-08-28T07:00:16.133Z,17.10
2017-08-28T07:02:43.578Z,17.00
2017-08-28T07:05:11.029Z,17.00
2017-08-28T07:07:38.482Z,17.10
2017-08-28T07:10:05.923Z,17.20
2017-08-28T07:12:33.379Z,17.20
2017-08-28T07:15:00.828Z,17.30
2017-08-28T07:17:28.269Z,17.50
2017-08-28T07:19:55.710Z,17.50
2017-08-28T07:22:23.161Z,17.60
2017-08-28T07:24:50.611Z,17.80
2017-08-28T07:27:18.073Z,17.90
2017-08-28T07:29:45.518Z,18.10
2017-08-28T07:32:12.970Z,18.10
2017-08-28T07:34:40.422Z,18.30
2017-08-28T07:37:07.862Z,18.20
2017-08-28T07:39:35.313Z,18.20
2017-08-28T07:42:02.760Z,18.60
2017-08-28T07:44:30.204Z,18.60
2017-08-28T07:46:57.645Z,18.70
2017-08-28T07:49:25.088Z,18.90
2017-08-28T07:51:52.530Z,19.10
2017-08-28T07:54:19.970Z,19.00
2017-08-28T07:56:47.417Z,19.20
2017-08-28T07:59:14.858Z,19.30
2017-08-28T08:01:42.297Z,19.30
2017-08-28T08:04:09.736Z,19.40
2017-08-28T08:06:37.185Z,19.40
2017-08-28T08:09:04.641Z,19.60
2017-08-28T08:11:32.088Z,19.50
2017-08-28T08:13:59.529Z,19.50
2017-08-28T08:16:26.998Z,19.50
2017-08-28T08:18:54.441Z,19.40
2017-08-28T08:21:21.886Z,19.50
2017-08-28T08:23:49.337Z,19.60
2017-08-28T08:26:16.784Z,19.60
2017-08-28T08:28:44.233Z,19.60
2017-08-28T08:31:11.679Z,19.80
2017-08-28T08:33:44.762Z,19.90
2017-08-28T08:36:12.210Z,19.90
2017-08-28T08:38:39.660Z,20.00
2017-08-28T08:41:07.111Z,19.90
2017-08-28T08:43:34.556Z,20.10
2017-08-28T08:46:01.999Z,20.20
2017-08-28T08:48:29.441Z,20.30
2017-08-28T08:50:56.893Z,20.40
2017-08-28T08:53:24.335Z,20.40
2017-08-28T08:55:51.790Z,20.60
2017-08-28T08:58:19.243Z,20.50
2017-08-28T09:00:46.689Z,20.40
2017-08-28T09:03:14.135Z,20.50
2017-08-28T09:05:42.353Z,20.80
2017-08-28T09:08:09.797Z,20.80
2017-08-28T09:10:37.249Z,21.00
2017-08-28T09:13:04.694Z,21.10
2017-08-28T09:15:32.144Z,21.20
2017-08-28T09:17:59.592Z,20.90
2017-08-28T09:20:27.049Z,21.10
2017-08-28T09:22:54.502Z,21.20
2017-08-28T09:25:21.951Z,21.40
2017-08-28T09:27:49.401Z,21.60
2017-08-28T09:30:16.845Z,21.50
2017-08-28T09:32:44.301Z,21.70
2017-08-28T09:35:11.745Z,21.90
2017-08-28T09:37:39.197Z,21.90
2017-08-28T09:40:06.651Z,22.10
2017-08-28T09:42:34.105Z,22.00
2017-08-28T09:45:01.554Z,22.00
2017-08-28T09:47:29.015Z,22.20
2017-08-28T09:49:56.452Z,22.50
2017-08-28T09:52:23.914Z,22.60
2017-08-28T09:54:51.358Z,22.50
2017-08-28T09:57:18.813Z,22.40
2017-08-28T09:59:46.268Z,22.50
2017-08-28T10:02:13.727Z,22.60
2017-08-28T10:04:41.158Z,22.60
2017-08-28T10:07:08.611Z,22.80
2017-08-28T10:09:36.074Z,22.80
2017-08-28T10:12:03.517Z,22.60
2017-08-28T10:14:30.978Z,22.70
2017-08-28T10:16:58.421Z,22.80
2017-08-28T10:19:25.869Z,22.90
2017-08-28T10:21:53.320Z,23.10
2017-08-28T10:24:20.778Z,23.10
2017-08-28T10:26:47.733Z,22.90
2017-08-28T10:29:15.195Z,23.00
2017-08-28T10:31:42.651Z,23.10
2017-08-28T10:34:10.102Z,23.40
2017-08-28T10:36:37.550Z,23.40
2017-08-28T10:39:05.001Z,23.30
2017-08-28T10:41:32.456Z,23.30
2017-08-28T10:43:59.909Z,23.50
2017-08-28T10:46:27.364Z,23.80
2017-08-28T10:48:54.817Z,23.90
2017-08-28T10:51:22.261Z,24.10
2017-08-28T10:53:49.730Z,24.20
2017-08-28T10:56:17.178Z,24.50
2017-08-28T10:58:44.631Z,24.80
2017-08-28T11:01:12.082Z,24.30
2017-08-28T11:03:39.530Z,24.30
2017-08-28T11:06:06.980Z,24.30
2017-08-28T11:08:34.445Z,24.70
2017-08-28T11:11:01.898Z,25.30
2017-08-28T11:13:29.337Z,25.40
2017-08-28T11:15:56.785Z,24.90
2017-08-28T11:18:24.236Z,25.70
2017-08-28T11:20:51.677Z,26.00
2017-08-28T11:23:19.136Z,26.10
2017-08-28T11:25:46.595Z,25.90
2017-08-28T11:28:14.042Z,25.80
2017-08-28T11:30:41.493Z,25.20
2017-08-28T11:33:08.951Z,25.60
2017-08-28T11:35:36.391Z,26.30
2017-08-28T11:38:03.846Z,26.40
2017-08-28T11:40:31.291Z,25.90
2017-08-28T11:42:58.744Z,26.70
2017-08-28T11:45:26.190Z,27.10
2017-08-28T11:47:53.656Z,27.30
2017-08-28T11:50:21.104Z,26.50
2017-08-28T11:52:48.556Z,26.70
2017-08-28T11:55:16.010Z,27.30
2017-08-28T11:57:43.468Z,27.40
2017-08-28T12:00:10.910Z,27.80
2017-08-28T12:02:38.378Z,28.20
2017-08-28T12:05:05.826Z,27.40
2017-08-28T12:07:33.279Z,27.70
2017-08-28T12:10:00.719Z,27.40
2017-08-28T12:12:28.167Z,27.40
2017-08-28T12:14:55.615Z,27.80
2017-08-28T12:17:23.060Z,28.10
2017-08-28T12:19:50.509Z,28.00
2017-08-28T12:22:17.956Z,28.20
2017-08-28T12:24:45.405Z,28.40
2017-08-28T12:29:46.762Z,27.70
2017-08-28T12:32:14.215Z,28.10
2017-08-28T12:34:41.665Z,28.60
2017-08-28T12:37:09.113Z,27.30
2017-08-28T12:39:36.568Z,28.30
2017-08-28T12:42:04.013Z,28.70
2017-08-28T12:44:31.458Z,28.90
2017-08-28T12:46:58.914Z,28.80
2017-08-28T12:49:26.346Z,28.70
2017-08-28T12:51:53.793Z,29.30
2017-08-28T12:54:21.233Z,28.80
2017-08-28T12:56:48.687Z,28.20
2017-08-28T12:59:16.139Z,29.00
2017-08-28T13:01:43.595Z,29.10
2017-08-28T13:04:11.038Z,29.40
2017-08-28T13:06:38.500Z,29.00
2017-08-28T13:09:05.952Z,28.70
2017-08-28T13:11:33.394Z,29.50
2017-08-28T13:14:00.844Z,28.20
2017-08-28T13:16:28.292Z,28.70
2017-08-28T13:18:55.744Z,28.70
2017-08-28T13:21:23.185Z,29.70
2017-08-28T13:23:50.637Z,28.80
2017-08-28T13:26:18.082Z,28.80
2017-08-28T13:28:45.536Z,29.20
2017-08-28T13:31:12.974Z,29.00
2017-08-28T13:33:40.442Z,28.30
2017-08-28T13:36:07.882Z,28.60
2017-08-28T13:38:35.332Z,29.20
2017-08-28T13:41:02.779Z,29.60
2017-08-28T13:43:30.213Z,30.50
2017-08-28T13:45:57.654Z,31.20
2017-08-28T13:48:25.108Z,30.60
2017-08-28T13:50:52.556Z,30.90
2017-08-28T13:53:19.998Z,30.60
2017-08-28T13:55:47.451Z,30.60
2017-08-28T13:58:14.893Z,31.10
2017-08-28T14:00:42.355Z,30.20
2017-08-28T14:03:09.806Z,30.70
2017-08-28T14:05:37.259Z,31.20
2017-08-28T14:08:04.714Z,30.60
2017-08-28T14:10:32.175Z,30.90
2017-08-28T14:12:59.628Z,30.80
2017-08-28T14:15:27.066Z,30.60
2017-08-28T14:17:54.540Z,31.70
2017-08-28T14:20:21.983Z,30.60
2017-08-28T14:22:49.431Z,31.00
2017-08-28T14:25:16.878Z,31.60
2017-08-28T14:27:44.316Z,31.20
2017-08-28T14:30:11.770Z,31.40
2017-08-28T14:32:39.215Z,31.80
2017-08-28T14:35:06.669Z,31.30
2017-08-28T14:37:34.136Z,31.40
2017-08-28T14:40:01.571Z,29.80
2017-08-28T14:42:29.017Z,30.90
2017-08-28T14:44:56.459Z,30.20
2017-08-28T14:47:23.912Z,30.60
2017-08-28T14:49:51.357Z,30.80
2017-08-28T14:52:18.800Z,31.20
2017-08-28T14:54:46.232Z,31.20
2017-08-28T14:57:13.677Z,30.90
2017-08-28T14:59:41.116Z,31.20
2017-08-28T15:02:08.565Z,29.80
2017-08-28T15:04:36.011Z,30.20
2017-08-28T15:07:03.472Z,28.70
2017-08-28T15:09:30.913Z,29.70
2017-08-28T15:11:58.364Z,30.70
2017-08-28T15:14:25.802Z,31.40
2017-08-28T15:16:53.264Z,30.30
2017-08-28T15:19:20.717Z,30.80
2017-08-28T15:21:48.171Z,31.40
2017-08-28T15:24:15.615Z,31.40
2017-08-28T15:26:43.062Z,30.30
2017-08-28T15:29:10.520Z,29.20
2017-08-28T15:31:37.968Z,29.60
2017-08-28T15:34:05.430Z,29.70
2017-08-28T15:36:32.878Z,29.80
2017-08-28T15:39:00.330Z,30.40
2017-08-28T15:41:27.775Z,30.10
2017-08-28T15:43:55.225Z,30.20
2017-08-28T15:46:22.669Z,29.80
2017-08-28T15:48:50.129Z,30.70
2017-08-28T15:51:17.578Z,31.40
2017-08-28T15:53:45.022Z,31.50
2017-08-28T15:56:12.478Z,31.30
2017-08-28T15:58:39.920Z,31.40
2017-08-28T16:01:07.385Z,30.90
2017-08-28T16:03:34.818Z,29.40
2017-08-28T16:06:02.275Z,28.70
2017-08-28T16:08:29.728Z,29.80
2017-08-28T16:10:57.177Z,29.60
2017-08-28T16:13:24.614Z,29.90
2017-08-28T16:15:52.095Z,29.40
2017-08-28T16:18:19.539Z,29.60
2017-08-28T16:20:46.985Z,29.10
2017-08-28T16:23:14.425Z,29.70
2017-08-28T16:25:41.867Z,30.00
2017-08-28T16:28:09.319Z,29.80
2017-08-28T16:30:36.767Z,30.00
2017-08-28T16:33:04.219Z,29.40
2017-08-28T16:35:31.661Z,30.20
2017-08-28T16:37:59.118Z,30.50
2017-08-28T16:40:26.556Z,30.10
2017-08-28T16:42:54.006Z,30.20
2017-08-28T16:45:21.453Z,30.00
2017-08-28T16:47:48.906Z,29.80
2017-08-28T16:50:17.184Z,30.20
2017-08-28T16:52:44.614Z,29.80
2017-08-28T16:55:12.065Z,29.50
2017-08-28T16:57:39.518Z,29.30
2017-08-28T17:00:06.966Z,28.20
2017-08-28T17:02:34.409Z,27.30
2017-08-28T17:05:01.862Z,26.60
2017-08-28T17:07:29.307Z,26.10
2017-08-28T17:09:56.755Z,25.50
2017-08-28T17:12:24.201Z,25.30
2017-08-28T17:14:51.711Z,24.40
2017-08-28T17:17:19.123Z,24.50
2017-08-28T17:19:46.568Z,24.50
2017-08-28T17:22:14.013Z,24.20
2017-08-28T17:24:41.452Z,24.20
2017-08-28T17:27:08.905Z,24.00
2017-08-28T17:29:36.348Z,24.00
2017-08-28T17:32:03.797Z,23.90
2017-08-28T17:34:31.234Z,23.80
2017-08-28T17:36:58.685Z,23.70
2017-08-28T17:39:26.139Z,23.50
2017-08-28T17:41:53.581Z,23.50
2017-08-28T17:44:21.034Z,23.40
2017-08-28T17:46:48.475Z,23.30
2017-08-28T17:49:15.919Z,23.20
2017-08-28T17:51:43.382Z,23.00
2017-08-28T17:54:10.825Z,22.90
2017-08-28T17:56:38.265Z,22.80
2017-08-28T17:59:05.710Z,22.70
2017-08-28T18:01:33.163Z,22.60
2017-08-28T18:04:00.609Z,22.50
2017-08-28T18:06:28.060Z,22.40
2017-08-28T18:08:55.507Z,22.40
2017-08-28T18:11:22.947Z,22.40
2017-08-28T18:13:50.409Z,22.30
2017-08-28T18:16:17.856Z,22.20
2017-08-28T18:18:45.302Z,22.10
2017-08-28T18:21:12.751Z,22.00
2017-08-28T18:23:40.200Z,21.90
2017-08-28T18:26:07.651Z,21.80
2017-08-28T18:28:35.096Z,21.70
2017-08-28T18:31:02.538Z,21.70
2017-08-28T18:33:29.981Z,21.50
2017-08-28T18:35:57.434Z,21.50
2017-08-28T18:38:24.885Z,21.50
2017-08-28T18:40:52.326Z,21.40
2017-08-28T18:43:19.774Z,21.40
2017-08-28T18:45:47.235Z,21.40
2017-08-28T18:48:14.678Z,21.50
2017-08-28T18:50:42.134Z,21.60
2017-08-28T18:53:09.586Z,21.50
2017-08-28T18:55:37.025Z,21.50
2017-08-28T18:58:04.470Z,21.40
2017-08-28T19:00:31.901Z,21.30
2017-08-28T19:02:59.363Z,21.40
2017-08-28T19:05:26.810Z,21.40
2017-08-28T19:07:54.257Z,21.30
2017-08-28T19:10:21.701Z,21.20
2017-08-28T19:12:49.152Z,21.10
2017-08-28T19:15:16.607Z,21.00
2017-08-28T19:17:44.050Z,20.90
2017-08-28T19:20:11.497Z,20.80
2017-08-28T19:22:38.945Z,20.70
2017-08-28T19:25:06.393Z,20.50
2017-08-28T19:27:33.849Z,20.40
2017-08-28T19:30:01.399Z,20.30
2017-08-28T19:32:28.855Z,20.30
2017-08-28T19:34:56.313Z,20.30
2017-08-28T19:37:23.748Z,20.30
2017-08-28T19:39:51.215Z,20.30
2017-08-28T19:42:18.653Z,20.30
2017-08-28T19:44:46.103Z,20.20
2017-08-28T19:47:13.547Z,20.00
2017-08-28T19:49:41.014Z,20.00
2017-08-28T19:52:08.483Z,20.00
2017-08-28T19:54:35.936Z,20.00
2017-08-28T19:57:03.399Z,20.00
2017-08-28T19:59:30.841Z,19.80
2017-08-28T20:01:58.294Z,19.80
2017-08-28T20:04:25.742Z,19.80
2017-08-28T20:06:53.190Z,19.80
2017-08-28T20:09:20.666Z,19.80
2017-08-28T20:11:48.150Z,19.80
2017-08-28T20:14:15.602Z,19.80
2017-08-28T20:16:43.196Z,19.80
2017-08-28T20:19:10.666Z,19.70
2017-08-28T20:21:38.142Z,19.70
2017-08-28T20:24:05.581Z,19.60
2017-08-28T20:26:33.022Z,19.50
2017-08-28T20:29:00.495Z,19.40
2017-08-28T20:31:27.945Z,19.30
2017-08-28T20:33:55.453Z,19.30
2017-08-28T20:36:22.898Z,19.30
2017-08-28T20:38:50.344Z,19.30
2017-08-28T20:41:17.872Z,19.30
2017-08-28T20:43:45.315Z,19.10
2017-08-28T20:46:12.801Z,19.00
2017-08-28T20:48:40.290Z,18.90
2017-08-28T20:51:07.738Z,18.90
2017-08-28T20:53:35.199Z,19.00
2017-08-28T20:56:02.685Z,19.10
2017-08-28T20:58:30.131Z,19.10
2017-08-28T21:00:57.586Z,19.20
2017-08-28T21:03:25.085Z,19.10
2017-08-28T21:05:52.529Z,19.10
2017-08-28T21:08:19.974Z,19.10
2017-08-28T21:10:47.426Z,19.30
2017-08-28T21:13:14.908Z,19.30
2017-08-28T21:15:42.506Z,19.30
2017-08-28T21:18:10.042Z,19.30
2017-08-28T21:20:37.525Z,19.20
2017-08-28T21:23:05.026Z,19.20
2017-08-28T21:25:32.570Z,19.20
2017-08-28T21:28:00.046Z,19.20
2017-08-28T21:30:27.491Z,19.00
2017-08-28T21:32:54.938Z,18.90
2017-08-28T21:35:22.369Z,18.80
2017-08-28T21:37:49.855Z,18.70
2017-08-28T21:40:17.296Z,18.60
2017-08-28T21:42:44.754Z,18.80
2017-08-28T21:45:12.222Z,18.90
2017-08-28T21:47:39.659Z,19.00
2017-08-28T21:50:07.134Z,19.10
2017-08-28T21:52:34.690Z,19.00
2017-08-28T21:55:02.151Z,18.80
2017-08-28T21:57:29.593Z,18.70
2017-08-28T21:59:57.046Z,18.50
2017-08-28T22:02:24.494Z,18.30
2017-08-28T22:04:51.945Z,18.30
2017-08-28T22:07:19.439Z,18.20
2017-08-28T22:09:46.945Z,18.20
2017-08-28T22:12:14.408Z,18.10
2017-08-28T22:14:41.867Z,18.00
2017-08-28T22:17:09.312Z,17.90
2017-08-28T22:19:36.767Z,18.00
2017-08-28T22:22:04.215Z,18.10
2017-08-28T22:24:31.665Z,18.00
2017-08-28T22:26:59.109Z,17.90
2017-08-28T22:29:26.555Z,17.80
2017-08-28T22:31:54.006Z,17.70
2017-08-28T22:34:21.449Z,17.80
2017-08-28T22:36:48.897Z,17.80
2017-08-28T22:39:16.337Z,17.80
2017-08-28T22:41:43.793Z,17.90
2017-08-28T22:44:11.236Z,18.00
2017-08-28T22:46:38.695Z,18.00
2017-08-28T22:49:06.133Z,17.80
2017-08-28T22:51:33.587Z,17.60
2017-08-28T22:54:01.026Z,17.60
2017-08-28T22:56:28.500Z,17.60
2017-08-28T22:58:55.919Z,17.70
2017-08-28T23:01:23.361Z,17.60
2017-08-28T23:03:50.811Z,17.50
2017-08-28T23:06:18.248Z,17.30
2017-08-28T23:08:45.713Z,17.30
2017-08-28T23:11:13.157Z,17.30
2017-08-28T23:13:40.614Z,17.20
2017-08-28T23:16:08.062Z,17.20
2017-08-28T23:18:35.509Z,17.20
2017-08-28T23:21:02.958Z,17.10
2017-08-28T23:23:30.397Z,17.10
2017-08-28T23:25:57.833Z,17.00
2017-08-28T23:28:25.290Z,17.00
2017-08-28T23:30:52.739Z,17.10
2017-08-28T23:33:20.177Z,17.00
2017-08-28T23:35:47.638Z,17.10
2017-08-28T23:38:15.108Z,17.20
2017-08-28T23:40:42.550Z,17.30
2017-08-28T23:43:09.990Z,17.10
2017-08-28T23:45:37.432Z,17.10
2017-08-28T23:48:04.878Z,17.00
2017-08-28T23:50:32.327Z,16.90
2017-08-28T23:52:59.769Z,16.90
2017-08-28T23:55:27.217Z,16.80
2017-08-28T23:57:54.935Z,16.80
